createdAt,value
2023-10-11T00:00:59.938Z,7.30
2023-10-11T00:06:07.464Z,8.52
2023-10-11T00:11:11.278Z,6.10
2023-10-11T00:16:18.143Z,6.78
2023-10-11T00:21:36.683Z,7.97
2023-10-11T00:26:41.527Z,7.82
2023-10-11T00:31:46.752Z,5.75
2023-10-11T00:36:51.270Z,5.57
2023-10-11T00:41:55.075Z,6.75
2023-10-11T00:47:01.422Z,9.45
2023-10-11T00:52:08.170Z,8.75
2023-10-11T00:57:13.179Z,6.63
2023-10-11T01:02:16.998Z,7.35
2023-10-11T01:07:22.146Z,7.05
2023-10-11T01:12:25.164Z,8.52
2023-10-11T01:17:32.895Z,8.43
2023-10-11T01:22:37.704Z,9.57
2023-10-11T01:27:41.531Z,8.32
2023-10-11T01:32:44.585Z,11.05
2023-10-11T01:37:49.967Z,9.27
2023-10-11T01:42:53.216Z,9.80
2023-10-11T01:47:58.055Z,8.65
2023-10-11T01:53:04.855Z,6.78
2023-10-11T01:58:13.961Z,8.23
2023-10-11T02:03:17.388Z,6.25
2023-10-11T02:08:22.017Z,8.07
2023-10-11T02:13:25.096Z,10.88
2023-10-11T02:18:28.332Z,11.68
2023-10-11T02:23:38.849Z,9.27
2023-10-11T02:28:42.277Z,8.32
2023-10-11T02:33:45.488Z,11.93
2023-10-11T02:38:52.320Z,11.05
2023-10-11T02:43:59.008Z,8.95
2023-10-11T02:49:07.287Z,8.98
2023-10-11T02:54:15.819Z,8.43
2023-10-11T02:59:24.133Z,8.27
2023-10-11T03:04:30.456Z,9.07
2023-10-11T03:09:37.172Z,8.38
2023-10-11T03:14:43.281Z,11.18
2023-10-11T03:19:46.599Z,10.98
2023-10-11T03:25:01.433Z,8.38
2023-10-11T03:30:13.016Z,13.70
2023-10-11T03:35:20.518Z,9.18
2023-10-11T03:40:35.449Z,12.73
2023-10-11T03:45:38.734Z,9.13
2023-10-11T03:50:49.134Z,11.70
2023-10-11T03:55:54.713Z,11.40
2023-10-11T04:01:02.242Z,9.70
2023-10-11T04:06:15.445Z,10.30
2023-10-11T04:11:20.715Z,9.55
2023-10-11T04:16:24.910Z,7.57
2023-10-11T04:21:39.444Z,12.40
2023-10-11T04:26:52.687Z,8.73
2023-10-11T04:32:11.283Z,8.27
2023-10-11T04:37:20.306Z,9.13
2023-10-11T04:42:29.167Z,11.85
2023-10-11T04:47:51.919Z,12.05
2023-10-11T04:52:57.669Z,12.27
2023-10-11T04:58:08.401Z,17.20
2023-10-11T05:03:11.919Z,8.82
2023-10-11T05:08:22.376Z,13.52
2023-10-11T05:13:37.615Z,11.00
2023-10-11T05:18:40.651Z,11.93
2023-10-11T05:23:53.893Z,9.07
2023-10-11T05:29:10.677Z,11.68
2023-10-11T05:34:47.801Z,9.90
2023-10-11T05:40:08.416Z,13.13
2023-10-11T05:45:30.556Z,10.43
2023-10-11T05:50:51.422Z,12.50
2023-10-11T05:55:55.185Z,13.38
2023-10-11T06:01:00.470Z,13.95
2023-10-11T06:06:12.440Z,12.02
2023-10-11T06:11:16.724Z,12.50
2023-10-11T06:16:38.284Z,11.35
2023-10-11T06:21:57.628Z,15.23
2023-10-11T06:27:33.844Z,10.35
2023-10-11T06:32:38.349Z,12.88
2023-10-11T06:37:41.507Z,13.63
2023-10-11T06:42:44.863Z,14.00
2023-10-11T06:47:51.746Z,12.10
2023-10-11T06:52:55.184Z,11.02
2023-10-11T06:57:58.628Z,12.82
2023-10-11T07:03:23.568Z,10.10
2023-10-11T07:08:34.143Z,12.02
2023-10-11T07:13:51.247Z,12.10
2023-10-11T07:18:58.350Z,11.70
2023-10-11T07:24:21.092Z,11.80
2023-10-11T07:29:25.226Z,12.80
2023-10-11T07:34:30.821Z,10.57
2023-10-11T07:39:36.266Z,15.18
2023-10-11T07:44:41.349Z,16.15
2023-10-11T07:49:46.519Z,13.80
2023-10-11T07:54:53.085Z,15.10
2023-10-11T07:59:56.257Z,13.88
2023-10-11T08:05:02.052Z,16.85
2023-10-11T08:10:25.328Z,14.38
2023-10-11T08:15:28.886Z,16.88
2023-10-11T08:20:35.439Z,18.45
2023-10-11T08:25:41.034Z,16.40
2023-10-11T08:30:47.864Z,18.48
2023-10-11T08:35:54.526Z,23.50
2023-10-11T08:41:00.269Z,17.42
2023-10-11T08:46:07.288Z,20.33
2023-10-11T08:51:15.964Z,26.30
2023-10-11T08:56:19.170Z,27.20
2023-10-11T09:01:25.949Z,22.20
2023-10-11T09:06:33.197Z,21.20
2023-10-11T09:11:36.486Z,19.77
2023-10-11T09:16:39.766Z,20.52
2023-10-11T09:21:44.302Z,23.27
2023-10-11T09:26:51.797Z,19.65
2023-10-11T09:32:00.024Z,20.92
2023-10-11T09:37:05.078Z,25.33
2023-10-11T09:42:12.776Z,24.70
2023-10-11T09:47:18.768Z,21.20
2023-10-11T09:52:25.988Z,17.95
2023-10-11T09:57:36.037Z,21.38
2023-10-11T10:02:46.217Z,27.63
2023-10-11T10:07:53.617Z,24.10
2023-10-11T10:13:01.086Z,19.25
2023-10-11T10:18:21.774Z,25.70
2023-10-11T10:23:31.002Z,24.90
2023-10-11T10:28:53.659Z,20.77
2023-10-11T10:34:26.221Z,21.35
2023-10-11T10:39:47.951Z,17.52
2023-10-11T10:44:55.413Z,14.45
2023-10-11T10:50:04.867Z,13.73
2023-10-11T10:55:10.468Z,15.55
2023-10-11T11:00:24.309Z,11.38
2023-10-11T11:05:32.737Z,15.88
2023-10-11T11:10:38.944Z,12.27
2023-10-11T11:15:45.604Z,12.55
2023-10-11T11:20:52.689Z,16.83
2023-10-11T11:25:59.697Z,14.13
2023-10-11T11:31:11.266Z,10.70
2023-10-11T11:36:34.798Z,15.98
2023-10-11T11:41:40.664Z,10.68
2023-10-11T11:46:43.815Z,13.55
2023-10-11T11:51:47.189Z,17.60
2023-10-11T11:56:55.880Z,11.32
2023-10-11T12:02:01.049Z,14.55
2023-10-11T12:07:06.857Z,16.27
2023-10-11T12:12:12.336Z,18.83
2023-10-11T12:17:15.622Z,14.75
2023-10-11T12:22:23.480Z,16.48
2023-10-11T12:27:28.424Z,16.20
2023-10-11T12:32:34.804Z,14.25
2023-10-11T12:37:41.414Z,13.40
2023-10-11T12:42:47.380Z,12.05
2023-10-11T12:47:50.543Z,13.65
2023-10-11T12:52:55.461Z,13.73
2023-10-11T12:58:00.238Z,14.38
2023-10-11T13:03:17.275Z,18.13
2023-10-11T13:08:25.617Z,13.68
2023-10-11T13:13:30.161Z,14.20
2023-10-11T13:18:38.842Z,15.43
2023-10-11T13:23:44.964Z,14.95
2023-10-11T13:28:50.038Z,17.48
2023-10-11T13:33:54.833Z,14.52
2023-10-11T13:38:58.054Z,14.48
2023-10-11T13:44:04.564Z,15.70
2023-10-11T13:49:25.780Z,18.98
2023-10-11T13:54:37.714Z,19.33
2023-10-11T13:59:47.443Z,18.95
2023-10-11T14:04:57.956Z,17.05
2023-10-11T14:10:02.300Z,16.20
2023-10-11T14:15:09.517Z,16.85
2023-10-11T14:20:21.129Z,17.40
2023-10-11T14:25:25.860Z,20.55
2023-10-11T14:30:30.758Z,15.32
2023-10-11T14:35:38.871Z,14.77
2023-10-11T14:40:47.963Z,20.95
2023-10-11T14:45:52.710Z,18.02
2023-10-11T14:50:56.176Z,19.70
2023-10-11T14:56:04.802Z,14.73
2023-10-11T15:01:09.768Z,15.73
2023-10-11T15:06:13.915Z,11.40
2023-10-11T15:11:25.183Z,11.60
2023-10-11T15:16:29.886Z,12.45
2023-10-11T15:21:36.166Z,12.48
2023-10-11T15:26:39.610Z,16.15
2023-10-11T15:31:44.230Z,13.73
2023-10-11T15:36:47.524Z,15.10
2023-10-11T15:41:53.485Z,8.95
2023-10-11T15:46:59.008Z,10.27
2023-10-11T15:52:02.536Z,13.55
2023-10-11T15:57:06.280Z,11.95
2023-10-11T16:02:13.333Z,11.90
2023-10-11T16:07:18.317Z,14.50
2023-10-11T16:12:21.558Z,11.93
2023-10-11T16:17:26.157Z,11.52
2023-10-11T16:22:29.252Z,8.82
2023-10-11T16:27:35.610Z,12.30
2023-10-11T16:32:40.383Z,16.73
2023-10-11T16:37:44.859Z,9.93
2023-10-11T16:42:49.377Z,10.65
2023-10-11T16:47:53.911Z,7.75
2023-10-11T16:52:57.132Z,9.35
2023-10-11T16:58:00.900Z,14.07
2023-10-11T17:03:07.922Z,11.07
2023-10-11T17:08:13.524Z,9.60
2023-10-11T17:13:17.274Z,11.30
2023-10-11T17:18:22.040Z,7.28
2023-10-11T17:23:26.878Z,10.77
2023-10-11T17:28:30.116Z,12.13
2023-10-11T17:33:36.480Z,11.25
2023-10-11T17:38:40.874Z,6.63
2023-10-11T17:43:44.241Z,7.70
2023-10-11T17:48:49.522Z,10.82
2023-10-11T17:53:52.592Z,6.75
2023-10-11T17:59:02.777Z,5.88
2023-10-11T18:04:08.051Z,12.25
2023-10-11T18:09:13.916Z,7.50
2023-10-11T18:14:17.208Z,5.57
2023-10-11T18:19:21.997Z,7.47
2023-10-11T18:24:25.602Z,6.40
2023-10-11T18:29:29.188Z,7.60
2023-10-11T18:34:34.397Z,6.40
2023-10-11T18:39:37.619Z,6.28
2023-10-11T18:44:51.722Z,5.45
2023-10-11T18:49:57.989Z,5.18
2023-10-11T18:55:01.567Z,8.43
2023-10-11T19:00:12.596Z,6.97
2023-10-11T19:05:21.251Z,4.53
2023-10-11T19:10:26.985Z,5.30
2023-10-11T19:15:30.934Z,4.75
2023-10-11T19:20:36.315Z,6.00
2023-10-11T19:25:39.678Z,4.80
2023-10-11T19:30:44.436Z,6.45
2023-10-11T19:35:49.016Z,6.13
2023-10-11T19:40:52.547Z,9.63
2023-10-11T19:45:55.821Z,6.43
2023-10-11T19:51:05.923Z,13.45
2023-10-11T19:56:25.074Z,6.22
2023-10-11T20:01:37.553Z,7.40
2023-10-11T20:06:42.550Z,7.82
2023-10-11T20:11:46.006Z,8.05
2023-10-11T20:16:49.193Z,5.60
2023-10-11T20:21:53.838Z,6.65
2023-10-11T20:26:57.746Z,6.82
2023-10-11T20:32:01.278Z,12.63
2023-10-11T20:37:06.036Z,7.43
2023-10-11T20:42:10.676Z,10.38
2023-10-11T20:47:14.128Z,6.47
2023-10-11T20:52:19.712Z,11.20
2023-10-11T20:57:24.524Z,7.53
2023-10-11T21:02:28.857Z,6.40
2023-10-11T21:07:33.586Z,6.75
2023-10-11T21:12:37.135Z,8.88
2023-10-11T21:17:44.403Z,9.32
2023-10-11T21:22:49.399Z,8.45
2023-10-11T21:27:54.110Z,13.02
2023-10-11T21:32:58.558Z,11.32
2023-10-11T21:38:04.042Z,7.03
2023-10-11T21:43:13.285Z,8.18
2023-10-11T21:48:18.163Z,7.20
2023-10-11T21:53:23.373Z,9.82
2023-10-11T21:58:31.178Z,8.13
2023-10-11T22:03:34.546Z,14.23
2023-10-11T22:08:39.126Z,10.30
2023-10-11T22:13:42.596Z,13.18
2023-10-11T22:18:45.694Z,7.40
2023-10-11T22:23:50.478Z,7.20
2023-10-11T22:28:53.735Z,9.07
2023-10-11T22:33:56.939Z,9.85
2023-10-11T22:39:02.324Z,9.95
2023-10-11T22:44:05.642Z,12.38
2023-10-11T22:49:08.881Z,9.38
2023-10-11T22:54:14.568Z,11.23
2023-10-11T22:59:18.526Z,8.55
2023-10-11T23:04:21.920Z,10.73
2023-10-11T23:09:29.491Z,10.80
2023-10-11T23:14:33.070Z,11.80
2023-10-11T23:19:42.734Z,11.20
2023-10-11T23:24:47.316Z,11.75
2023-10-11T23:29:50.351Z,12.65
2023-10-11T23:34:54.552Z,14.77
2023-10-11T23:40:22.224Z,14.88
2023-10-11T23:45:33.337Z,17.20
2023-10-11T23:50:38.858Z,12.15
2023-10-11T23:55:43.624Z,15.10
